sensor_id;sensor_type;location;lat;lon;timestamp;pressure;altitude;pressure_sealevel;temperature;humidity
59757;BME280;45631;51.962;5.974;2023-03-03T00:01:39;102347.22;;;0.81;100.00
59757;BME280;45631;51.962;5.974;2023-03-03T00:04:07;102344.66;;;0.78;100.00
59757;BME280;45631;51.962;5.974;2023-03-03T00:06:35;102348.09;;;0.63;100.00
59757;BME280;45631;51.962;5.974;2023-03-03T00:09:05;102340.31;;;0.60;100.00
59757;BME280;45631;51.962;5.974;2023-03-03T00:11:33;102343.75;;;0.56;100.00
59757;BME280;45631;51.962;5.974;2023-03-03T00:14:01;102348.06;;;0.46;100.00
59757;BME280;45631;51.962;5.974;2023-03-03T00:16:31;102350.66;;;0.49;100.00
59757;BME280;45631;51.962;5.974;2023-03-03T00:19:02;102350.66;;;0.49;100.00
59757;BME280;45631;51.962;5.974;2023-03-03T00:21:32;102342.00;;;0.42;100.00
59757;BME280;45631;51.962;5.974;2023-03-03T00:24:20;102346.38;;;0.46;100.00
59757;BME280;45631;51.962;5.974;2023-03-03T00:26:51;102348.06;;;0.46;100.00
59757;BME280;45631;51.962;5.974;2023-03-03T00:29:27;102353.25;;;0.49;100.00
59757;BME280;45631;51.962;5.974;2023-03-03T00:32:11;102356.69;;;0.43;100.00
59757;BME280;45631;51.962;5.974;2023-03-03T00:34:43;102353.25;;;0.54;100.00
59757;BME280;45631;51.962;5.974;2023-03-03T00:37:27;102354.13;;;0.48;100.00
59757;BME280;45631;51.962;5.974;2023-03-03T00:40:10;102348.91;;;0.45;100.00
59757;BME280;45631;51.962;5.974;2023-03-03T00:42:41;102361.00;;;0.38;100.00
59757;BME280;45631;51.962;5.974;2023-03-03T00:45:25;102361.84;;;0.34;100.00
59757;BME280;45631;51.962;5.974;2023-03-03T00:47:54;102355.81;;;0.38;100.00
59757;BME280;45631;51.962;5.974;2023-03-03T00:50:33;102359.28;;;0.37;100.00
59757;BME280;45631;51.962;5.974;2023-03-03T00:53:05;102361.88;;;0.40;100.00
59757;BME280;45631;51.962;5.974;2023-03-03T00:55:35;102355.84;;;0.40;100.00
59757;BME280;45631;51.962;5.974;2023-03-03T00:58:03;102357.53;;;0.41;100.00
59757;BME280;45631;51.962;5.974;2023-03-03T01:00:31;102354.09;;;0.34;100.00
59757;BME280;45631;51.962;5.974;2023-03-03T01:03:02;102362.72;;;0.31;100.00
59757;BME280;45631;51.962;5.974;2023-03-03T01:05:31;102361.00;;;0.30;100.00
59757;BME280;45631;51.962;5.974;2023-03-03T01:07:59;102360.97;;;0.26;100.00
59757;BME280;45631;51.962;5.974;2023-03-03T01:10:31;102367.00;;;0.22;100.00
59757;BME280;45631;51.962;5.974;2023-03-03T01:13:02;102360.94;;;0.15;100.00
59757;BME280;45631;51.962;5.974;2023-03-03T01:15:31;102358.34;;;0.10;100.00
59757;BME280;45631;51.962;5.974;2023-03-03T01:17:59;102360.09;;;0.11;100.00
59757;BME280;45631;51.962;5.974;2023-03-03T01:20:27;102355.75;;;0.13;100.00
59757;BME280;45631;51.962;5.974;2023-03-03T01:22:55;102358.34;;;0.12;100.00
59757;BME280;45631;51.962;5.974;2023-03-03T01:25:24;102354.91;;;0.14;100.00
59757;BME280;45631;51.962;5.974;2023-03-03T01:27:52;102360.09;;;0.17;100.00
59757;BME280;45631;51.962;5.974;2023-03-03T01:30:22;102361.81;;;0.15;100.00
59757;BME280;45631;51.962;5.974;2023-03-03T01:32:51;102357.50;;;0.11;100.00
59757;BME280;45631;51.962;5.974;2023-03-03T01:35:19;102355.75;;;0.13;100.00
59757;BME280;45631;51.962;5.974;2023-03-03T01:37:47;102359.22;;;0.05;100.00
59757;BME280;45631;51.962;5.974;2023-03-03T01:40:18;102360.09;;;0.08;100.00
59757;BME280;45631;51.962;5.974;2023-03-03T01:42:47;102360.09;;;0.08;100.00
59757;BME280;45631;51.962;5.974;2023-03-03T01:45:18;102361.78;;;0.09;100.00
59757;BME280;45631;51.962;5.974;2023-03-03T01:47:55;102354.91;;;0.14;100.00
59757;BME280;45631;51.962;5.974;2023-03-03T01:50:33;102357.50;;;0.11;100.00
59757;BME280;45631;51.962;5.974;2023-03-03T01:53:04;102356.63;;;0.11;100.00
59757;BME280;45631;51.962;5.974;2023-03-03T01:55:34;102364.38;;;0.08;100.00
59757;BME280;45631;51.962;5.974;2023-03-03T01:58:06;102364.38;;;0.11;100.00
59757;BME280;45631;51.962;5.974;2023-03-03T02:00:37;102365.25;;;0.16;100.00
59757;BME280;45631;51.962;5.974;2023-03-03T02:03:08;102362.69;;;0.17;100.00
59757;BME280;45631;51.962;5.974;2023-03-03T02:05:37;102366.97;;;0.11;100.00
59757;BME280;45631;51.962;5.974;2023-03-03T02:08:07;102364.41;;;0.14;100.00
59757;BME280;45631;51.962;5.974;2023-03-03T02:10:37;102367.00;;;0.15;100.00
59757;BME280;45631;51.962;5.974;2023-03-03T02:13:05;102367.84;;;0.16;100.00
59757;BME280;45631;51.962;5.974;2023-03-03T02:15:34;102369.59;;;0.22;100.00
59757;BME280;45631;51.962;5.974;2023-03-03T02:18:04;102373.06;;;0.22;100.00
59757;BME280;45631;51.962;5.974;2023-03-03T02:20:48;102371.31;;;0.20;100.00
59757;BME280;45631;51.962;5.974;2023-03-03T02:23:20;102368.75;;;0.29;100.00
59757;BME280;45631;51.962;5.974;2023-03-03T02:26:08;102374.78;;;0.23;100.00
59757;BME280;45631;51.962;5.974;2023-03-03T02:28:39;102370.47;;;0.22;100.00
59757;BME280;45631;51.962;5.974;2023-03-03T02:31:09;102365.25;;;0.19;100.00
59757;BME280;45631;51.962;5.974;2023-03-03T02:33:39;102361.81;;;0.22;100.00
59757;BME280;45631;51.962;5.974;2023-03-03T02:36:11;102367.03;;;0.26;100.00
59757;BME280;45631;51.962;5.974;2023-03-03T02:38:47;102364.44;;;0.29;100.00
59757;BME280;45631;51.962;5.974;2023-03-03T02:41:27;102367.03;;;0.31;100.00
59757;BME280;45631;51.962;5.974;2023-03-03T02:44:00;102362.72;;;0.31;100.00
59757;BME280;45631;51.962;5.974;2023-03-03T02:46:33;102367.06;;;0.39;100.00
59757;BME280;45631;51.962;5.974;2023-03-03T02:49:02;102364.47;;;0.39;100.00
59757;BME280;45631;51.962;5.974;2023-03-03T02:51:30;102357.56;;;0.38;100.00
59757;BME280;45631;51.962;5.974;2023-03-03T02:53:58;102360.13;;;0.36;100.00
59757;BME280;45631;51.962;5.974;2023-03-03T02:56:28;102354.09;;;0.36;100.00
59757;BME280;45631;51.962;5.974;2023-03-03T02:58:57;102349.78;;;0.39;100.00
59757;BME280;45631;51.962;5.974;2023-03-03T03:01:25;102359.28;;;0.40;100.00
59757;BME280;45631;51.962;5.974;2023-03-03T03:03:53;102360.13;;;0.41;100.00
59757;BME280;45631;51.962;5.974;2023-03-03T03:06:21;102361.88;;;0.36;100.00
59757;BME280;45631;51.962;5.974;2023-03-03T03:08:49;102369.63;;;0.40;100.00
59757;BME280;45631;51.962;5.974;2023-03-03T03:11:17;102364.47;;;0.40;100.00
59757;BME280;45631;51.962;5.974;2023-03-03T03:13:47;102364.47;;;0.46;100.00
59757;BME280;45631;51.962;5.974;2023-03-03T03:16:15;102361.00;;;0.46;100.00
59757;BME280;45631;51.962;5.974;2023-03-03T03:18:44;102361.88;;;0.51;100.00
59757;BME280;45631;51.962;5.974;2023-03-03T03:21:13;102365.31;;;0.38;100.00
59757;BME280;45631;51.962;5.974;2023-03-03T03:23:43;102358.44;;;0.44;100.00
59757;BME280;45631;51.962;5.974;2023-03-03T03:26:11;102364.47;;;0.46;100.00
59757;BME280;45631;51.962;5.974;2023-03-03T03:28:43;102361.91;;;0.46;100.00
59757;BME280;45631;51.962;5.974;2023-03-03T03:31:13;102367.03;;;0.42;100.00
59757;BME280;45631;51.962;5.974;2023-03-03T03:33:41;102371.38;;;0.47;100.00
59757;BME280;45631;51.962;5.974;2023-03-03T03:36:10;102359.28;;;0.45;100.00
59757;BME280;45631;51.962;5.974;2023-03-03T03:38:42;102369.63;;;0.40;100.00
59757;BME280;45631;51.962;5.974;2023-03-03T03:41:11;102364.47;;;0.42;100.00
59757;BME280;45631;51.962;5.974;2023-03-03T03:43:39;102361.88;;;0.40;100.00
59757;BME280;45631;51.962;5.974;2023-03-03T03:46:08;102354.94;;;0.42;100.00
59757;BME280;45631;51.962;5.974;2023-03-03T03:48:37;102358.44;;;0.46;100.00
59757;BME280;45631;51.962;5.974;2023-03-03T03:51:05;102370.50;;;0.45;100.00
59757;BME280;45631;51.962;5.974;2023-03-03T03:53:33;102364.47;;;0.46;100.00
59757;BME280;45631;51.962;5.974;2023-03-03T03:56:02;102368.81;;;0.50;100.00
59757;BME280;45631;51.962;5.974;2023-03-03T03:58:32;102373.94;;;0.49;100.00
59757;BME280;45631;51.962;5.974;2023-03-03T04:01:02;102377.41;;;0.51;100.00
59757;BME280;45631;51.962;5.974;2023-03-03T04:03:30;102372.25;;;0.48;100.00
59757;BME280;45631;51.962;5.974;2023-03-03T04:06:00;102370.50;;;0.45;100.00
59757;BME280;45631;51.962;5.974;2023-03-03T04:08:28;102372.25;;;0.48;100.00
59757;BME280;45631;51.962;5.974;2023-03-03T04:10:56;102365.31;;;0.52;100.00
59757;BME280;45631;51.962;5.974;2023-03-03T04:13:27;102361.00;;;0.46;100.00
59757;BME280;45631;51.962;5.974;2023-03-03T04:15:57;102367.06;;;0.49;100.00
59757;BME280;45631;51.962;5.974;2023-03-03T04:18:26;102360.16;;;0.52;100.00
59757;BME280;45631;51.962;5.974;2023-03-03T04:20:54;102366.19;;;0.49;100.00
59757;BME280;45631;51.962;5.974;2023-03-03T04:23:23;102368.78;;;0.54;100.00
59757;BME280;45631;51.962;5.974;2023-03-03T04:25:52;102361.03;;;0.55;100.00
59757;BME280;45631;51.962;5.974;2023-03-03T04:28:20;102366.19;;;0.57;100.00
59757;BME280;45631;51.962;5.974;2023-03-03T04:30:51;102364.47;;;0.54;100.00
59757;BME280;45631;51.962;5.974;2023-03-03T04:33:19;102368.78;;;0.57;100.00
59757;BME280;45631;51.962;5.974;2023-03-03T04:35:47;102368.78;;;0.57;100.00
59757;BME280;45631;51.962;5.974;2023-03-03T04:38:15;102368.78;;;0.57;100.00
59757;BME280;45631;51.962;5.974;2023-03-03T04:40:45;102372.25;;;0.60;100.00
59757;BME280;45631;51.962;5.974;2023-03-03T04:43:13;102361.88;;;0.57;100.00
59757;BME280;45631;51.962;5.974;2023-03-03T04:45:41;102364.50;;;0.59;100.00
59757;BME280;45631;51.962;5.974;2023-03-03T04:48:13;102363.59;;;0.60;100.00
59757;BME280;45631;51.962;5.974;2023-03-03T04:50:41;102367.91;;;0.65;100.00
59757;BME280;45631;51.962;5.974;2023-03-03T04:53:09;102367.06;;;0.65;100.00
59757;BME280;45631;51.962;5.974;2023-03-03T04:55:37;102369.66;;;0.66;100.00
59757;BME280;45631;51.962;5.974;2023-03-03T04:58:07;102380.00;;;0.66;100.00
59757;BME280;45631;51.962;5.974;2023-03-03T05:00:36;102370.53;;;0.61;100.00
59757;BME280;45631;51.962;5.974;2023-03-03T05:03:05;102381.75;;;0.64;100.00
59757;BME280;45631;51.962;5.974;2023-03-03T05:05:33;102376.56;;;0.64;100.00
59757;BME280;45631;51.962;5.974;2023-03-03T05:08:01;102383.50;;;0.67;100.00
59757;BME280;45631;51.962;5.974;2023-03-03T05:10:29;102378.28;;;0.61;100.00
59757;BME280;45631;51.962;5.974;2023-03-03T05:13:00;102380.03;;;0.65;100.00
59757;BME280;45631;51.962;5.974;2023-03-03T05:15:30;102380.03;;;0.59;100.00
59757;BME280;45631;51.962;5.974;2023-03-03T05:17:58;102385.19;;;0.62;100.00
59757;BME280;45631;51.962;5.974;2023-03-03T05:20:27;102376.56;;;0.69;100.00
59757;BME280;45631;51.962;5.974;2023-03-03T05:22:55;102387.81;;;0.71;100.00
59757;BME280;45631;51.962;5.974;2023-03-03T05:25:25;102388.66;;;0.70;100.00
59757;BME280;45631;51.962;5.974;2023-03-03T05:27:53;102388.66;;;0.75;100.00
59757;BME280;45631;51.962;5.974;2023-03-03T05:30:21;102392.13;;;0.75;100.00
59757;BME280;45631;51.962;5.974;2023-03-03T05:32:51;102380.88;;;0.73;100.00
59757;BME280;45631;51.962;5.974;2023-03-03T05:35:19;102385.22;;;0.76;100.00
59757;BME280;45631;51.962;5.974;2023-03-03T05:37:47;102383.47;;;0.76;100.00
59757;BME280;45631;51.962;5.974;2023-03-03T05:40:15;102388.66;;;0.75;100.00
59757;BME280;45631;51.962;5.974;2023-03-03T05:42:44;102389.53;;;0.78;100.00
59757;BME280;45631;51.962;5.974;2023-03-03T05:45:12;102388.66;;;0.75;100.00
59757;BME280;45631;51.962;5.974;2023-03-03T05:47:40;102392.97;;;0.77;100.00
59757;BME280;45631;51.962;5.974;2023-03-03T05:50:10;102397.28;;;0.66;100.00
59757;BME280;45631;51.962;5.974;2023-03-03T05:52:39;102402.50;;;0.74;100.00
59757;BME280;45631;51.962;5.974;2023-03-03T05:55:08;102392.09;;;0.71;100.00
59757;BME280;45631;51.962;5.974;2023-03-03T05:57:36;102396.44;;;0.67;100.00
59757;BME280;45631;51.962;5.974;2023-03-03T06:00:06;102392.13;;;0.66;100.00
59757;BME280;45631;51.962;5.974;2023-03-03T06:02:34;102399.03;;;0.70;100.00
59757;BME280;45631;51.962;5.974;2023-03-03T06:05:03;102401.59;;;0.61;100.00
59757;BME280;45631;51.962;5.974;2023-03-03T06:07:32;102406.78;;;0.62;100.00
59757;BME280;45631;51.962;5.974;2023-03-03T06:10:01;102400.75;;;0.60;100.00
59757;BME280;45631;51.962;5.974;2023-03-03T06:12:29;102410.22;;;0.60;100.00
59757;BME280;45631;51.962;5.974;2023-03-03T06:14:57;102408.50;;;0.60;100.00
59757;BME280;45631;51.962;5.974;2023-03-03T06:17:25;102410.22;;;0.58;100.00
59757;BME280;45631;51.962;5.974;2023-03-03T06:19:53;102412.81;;;0.60;100.00
59757;BME280;45631;51.962;5.974;2023-03-03T06:22:22;102418.00;;;0.57;100.00
59757;BME280;45631;51.962;5.974;2023-03-03T06:24:51;102411.06;;;0.51;100.00
59757;BME280;45631;51.962;5.974;2023-03-03T06:27:19;102416.25;;;0.51;100.00
59757;BME280;45631;51.962;5.974;2023-03-03T06:29:48;102420.59;;;0.54;100.00
59757;BME280;45631;51.962;5.974;2023-03-03T06:32:16;102419.72;;;0.56;100.00
59757;BME280;45631;51.962;5.974;2023-03-03T06:34:44;102424.91;;;0.62;100.00
59757;BME280;45631;51.962;5.974;2023-03-03T06:37:12;102423.16;;;0.58;100.00
59757;BME280;45631;51.962;5.974;2023-03-03T06:39:40;102434.41;;;0.59;100.00
59757;BME280;45631;51.962;5.974;2023-03-03T06:42:10;102430.06;;;0.62;100.00
59757;BME280;45631;51.962;5.974;2023-03-03T06:44:38;102429.19;;;0.57;100.00
59757;BME280;45631;51.962;5.974;2023-03-03T06:47:09;102431.81;;;0.60;100.00
59757;BME280;45631;51.962;5.974;2023-03-03T06:49:37;102435.25;;;0.62;100.00
59757;BME280;45631;51.962;5.974;2023-03-03T06:52:11;102434.38;;;0.56;100.00
59757;BME280;45631;51.962;5.974;2023-03-03T06:54:40;102432.69;;;0.55;100.00
59757;BME280;45631;51.962;5.974;2023-03-03T06:57:16;102443.88;;;0.58;100.00
59757;BME280;45631;51.962;5.974;2023-03-03T06:59:48;102442.16;;;0.63;100.00
59757;BME280;45631;51.962;5.974;2023-03-03T07:02:18;102437.88;;;0.67;100.00
59757;BME280;45631;51.962;5.974;2023-03-03T07:04:47;102438.75;;;0.74;100.00
59757;BME280;45631;51.962;5.974;2023-03-03T07:07:18;102455.13;;;0.77;100.00
59757;BME280;45631;51.962;5.974;2023-03-03T07:09:48;102452.56;;;0.74;100.00
59757;BME280;45631;51.962;5.974;2023-03-03T07:12:21;102460.31;;;0.77;100.00
59757;BME280;45631;51.962;5.974;2023-03-03T07:14:52;102451.69;;;0.84;100.00
59757;BME280;45631;51.962;5.974;2023-03-03T07:17:23;102451.69;;;0.81;100.00
59757;BME280;45631;51.962;5.974;2023-03-03T07:19:52;102458.63;;;0.79;100.00
59757;BME280;45631;51.962;5.974;2023-03-03T07:22:24;102463.75;;;0.76;100.00
59757;BME280;45631;51.962;5.974;2023-03-03T07:24:53;102462.91;;;0.80;100.00
59757;BME280;45631;51.962;5.974;2023-03-03T07:27:27;102468.13;;;0.85;100.00
59757;BME280;45631;51.962;5.974;2023-03-03T07:30:11;102469.00;;;0.93;100.00
59757;BME280;45631;51.962;5.974;2023-03-03T07:32:45;102470.72;;;0.96;100.00
59757;BME280;45631;51.962;5.974;2023-03-03T07:35:28;102475.03;;;0.92;100.00
59757;BME280;45631;51.962;5.974;2023-03-03T07:37:59;102475.91;;;0.94;100.00
59757;BME280;45631;51.962;5.974;2023-03-03T07:40:34;102481.94;;;0.90;100.00
59757;BME280;45631;51.962;5.974;2023-03-03T07:43:28;102479.34;;;0.93;100.00
59757;BME280;45631;51.962;5.974;2023-03-03T07:46:01;102485.41;;;1.01;100.00
59757;BME280;45631;51.962;5.974;2023-03-03T07:48:34;102487.13;;;1.06;100.00
59757;BME280;45631;51.962;5.974;2023-03-03T07:51:10;102487.97;;;1.08;100.00
59757;BME280;45631;51.962;5.974;2023-03-03T07:53:38;102492.34;;;1.13;100.00
59757;BME280;45631;51.962;5.974;2023-03-03T07:56:16;102494.91;;;1.15;100.00
59757;BME280;45631;51.962;5.974;2023-03-03T07:58:49;102496.63;;;1.14;100.00
59757;BME280;45631;51.962;5.974;2023-03-03T08:01:35;102498.38;;;1.09;100.00
59757;BME280;45631;51.962;5.974;2023-03-03T08:04:14;102499.22;;;1.10;100.00
59757;BME280;45631;51.962;5.974;2023-03-03T08:06:46;102510.47;;;1.20;100.00
59757;BME280;45631;51.962;5.974;2023-03-03T08:09:30;102505.28;;;1.33;100.00
59757;BME280;45631;51.962;5.974;2023-03-03T08:12:17;102504.41;;;1.22;100.00
59757;BME280;45631;51.962;5.974;2023-03-03T08:14:51;102511.34;;;1.22;100.00
59757;BME280;45631;51.962;5.974;2023-03-03T08:17:20;102512.22;;;1.30;100.00
59757;BME280;45631;51.962;5.974;2023-03-03T08:19:49;102521.72;;;1.23;100.00
59757;BME280;45631;51.962;5.974;2023-03-03T08:22:21;102520.84;;;1.26;100.00
59757;BME280;45631;51.962;5.974;2023-03-03T08:24:51;102520.84;;;1.29;100.00
59757;BME280;45631;51.962;5.974;2023-03-03T08:27:19;102527.75;;;1.33;100.00
59757;BME280;45631;51.962;5.974;2023-03-03T08:29:49;102527.75;;;1.33;100.00
59757;BME280;45631;51.962;5.974;2023-03-03T08:32:17;102526.91;;;1.34;100.00
59757;BME280;45631;51.962;5.974;2023-03-03T08:34:45;102526.88;;;1.42;100.00
59757;BME280;45631;51.962;5.974;2023-03-03T08:37:13;102529.50;;;1.49;100.00
59757;BME280;45631;51.962;5.974;2023-03-03T08:39:41;102527.78;;;1.51;100.00
59757;BME280;45631;51.962;5.974;2023-03-03T08:42:10;102531.19;;;1.57;100.00
59757;BME280;45631;51.962;5.974;2023-03-03T08:44:40;102541.56;;;1.57;100.00
59757;BME280;45631;51.962;5.974;2023-03-03T08:47:10;102531.22;;;1.64;100.00
59757;BME280;45631;51.962;5.974;2023-03-03T08:49:38;102536.38;;;1.66;100.00
59757;BME280;45631;51.962;5.974;2023-03-03T08:52:06;102527.75;;;1.67;100.00
59757;BME280;45631;51.962;5.974;2023-03-03T08:54:34;102531.19;;;1.69;100.00
59757;BME280;45631;51.962;5.974;2023-03-03T08:57:03;102533.81;;;1.74;100.00
59757;BME280;45631;51.962;5.974;2023-03-03T08:59:31;102530.34;;;1.76;100.00
59757;BME280;45631;51.962;5.974;2023-03-03T09:02:03;102533.81;;;1.81;100.00
59757;BME280;45631;51.962;5.974;2023-03-03T09:04:33;102540.72;;;1.87;100.00
59757;BME280;45631;51.962;5.974;2023-03-03T09:07:02;102542.41;;;1.88;100.00
59757;BME280;45631;51.962;5.974;2023-03-03T09:09:30;102540.69;;;1.92;100.00
59757;BME280;45631;51.962;5.974;2023-03-03T09:12:15;102541.50;;;2.03;100.00
59757;BME280;45631;51.962;5.974;2023-03-03T09:14:45;102539.78;;;2.05;100.00
59757;BME280;45631;51.962;5.974;2023-03-03T09:17:23;102544.13;;;2.06;100.00
59757;BME280;45631;51.962;5.974;2023-03-03T09:19:55;102538.03;;;2.13;100.00
59757;BME280;45631;51.962;5.974;2023-03-03T09:22:27;102546.69;;;2.18;100.00
59757;BME280;45631;51.962;5.974;2023-03-03T09:24:58;102540.59;;;2.29;100.00
59757;BME280;45631;51.962;5.974;2023-03-03T09:27:34;102534.50;;;2.34;100.00
59757;BME280;45631;51.962;5.974;2023-03-03T09:30:11;102531.91;;;2.39;100.00
59757;BME280;45631;51.962;5.974;2023-03-03T09:32:43;102533.56;;;2.49;100.00
59757;BME280;45631;51.962;5.974;2023-03-03T09:35:36;102535.28;;;2.53;100.00
59757;BME280;45631;51.962;5.974;2023-03-03T09:38:17;102531.78;;;2.65;100.00
59757;BME280;45631;51.962;5.974;2023-03-03T09:40:55;102534.38;;;2.70;100.00
59757;BME280;45631;51.962;5.974;2023-03-03T09:43:29;102532.56;;;2.77;100.00
59757;BME280;45631;51.962;5.974;2023-03-03T09:46:08;102538.63;;;2.82;100.00
59757;BME280;45631;51.962;5.974;2023-03-03T09:48:51;102542.03;;;2.93;100.00
59757;BME280;45631;51.962;5.974;2023-03-03T09:51:50;102548.94;;;2.97;100.00
59757;BME280;45631;51.962;5.974;2023-03-03T09:54:33;102546.31;;;3.02;100.00
59757;BME280;45631;51.962;5.974;2023-03-03T09:57:09;102549.69;;;3.12;100.00
59757;BME280;45631;51.962;5.974;2023-03-03T09:59:54;102549.59;;;3.26;100.00
59757;BME280;45631;51.962;5.974;2023-03-03T10:02:37;102554.72;;;3.38;100.00
59757;BME280;45631;51.962;5.974;2023-03-03T10:05:20;102551.22;;;3.44;100.00
59757;BME280;45631;51.962;5.974;2023-03-03T10:08:02;102547.59;;;3.62;100.00
59757;BME280;45631;51.962;5.974;2023-03-03T10:10:55;102552.84;;;3.59;100.00
59757;BME280;45631;51.962;5.974;2023-03-03T10:13:49;102556.22;;;3.64;100.00
59757;BME280;45631;51.962;5.974;2023-03-03T10:16:35;102548.38;;;3.70;100.00
59757;BME280;45631;51.962;5.974;2023-03-03T10:19:17;102549.22;;;3.73;100.00
59757;BME280;45631;51.962;5.974;2023-03-03T10:21:52;102553.41;;;3.88;100.00
59757;BME280;45631;51.962;5.974;2023-03-03T10:24:28;102548.09;;;4.02;100.00
59757;BME280;45631;51.962;5.974;2023-03-03T10:27:06;102553.16;;;4.12;100.00
59757;BME280;45631;51.962;5.974;2023-03-03T10:29:42;102547.84;;;4.22;100.00
59757;BME280;45631;51.962;5.974;2023-03-03T10:32:29;102555.41;;;4.47;100.00
59757;BME280;45631;51.962;5.974;2023-03-03T10:35:22;102563.94;;;4.59;100.00
59757;BME280;45631;51.962;5.974;2023-03-03T10:38:02;102559.56;;;4.62;100.00
59757;BME280;45631;51.962;5.974;2023-03-03T10:40:36;102551.63;;;4.68;100.00
59757;BME280;45631;51.962;5.974;2023-03-03T10:43:18;102553.22;;;4.80;100.00
59757;BME280;45631;51.962;5.974;2023-03-03T10:46:19;102555.75;;;4.85;100.00
59757;BME280;45631;51.962;5.974;2023-03-03T10:49:05;102556.38;;;5.02;100.00
59757;BME280;45631;51.962;5.974;2023-03-03T10:51:42;102557.22;;;5.06;100.00
59757;BME280;45631;51.962;5.974;2023-03-03T10:54:29;102552.00;;;5.04;100.00
59757;BME280;45631;51.962;5.974;2023-03-03T10:57:14;102553.69;;;5.10;100.00
59757;BME280;45631;51.962;5.974;2023-03-03T10:59:56;102549.97;;;5.25;100.00
59757;BME280;45631;51.962;5.974;2023-03-03T11:02:37;102550.47;;;5.49;100.00
59757;BME280;45631;51.962;5.974;2023-03-03T11:05:18;102547.41;;;5.73;100.00
59757;BME280;45631;51.962;5.974;2023-03-03T11:07:55;102546.41;;;5.82;100.00
59757;BME280;45631;51.962;5.974;2023-03-03T11:10:33;102544.56;;;5.87;100.00
59757;BME280;45631;51.962;5.974;2023-03-03T11:13:14;102549.56;;;6.03;100.00
59757;BME280;45631;51.962;5.974;2023-03-03T11:16:02;102546.22;;;5.91;100.00
59757;BME280;45631;51.962;5.974;2023-03-03T11:18:41;102542.97;;;5.80;100.00
59757;BME280;45631;51.962;5.974;2023-03-03T11:21:21;102548.03;;;5.89;100.00
59757;BME280;45631;51.962;5.974;2023-03-03T11:23:57;102541.38;;;6.20;100.00
59757;BME280;45631;51.962;5.974;2023-03-03T11:26:40;102536.72;;;6.36;100.00
59757;BME280;45631;51.962;5.974;2023-03-03T11:29:27;102535.69;;;6.84;100.00
59757;BME280;45631;51.962;5.974;2023-03-03T11:32:01;102530.66;;;7.48;100.00
59757;BME280;45631;51.962;5.974;2023-03-03T11:34:46;102528.00;;;7.84;100.00
59757;BME280;45631;51.962;5.974;2023-03-03T11:37:22;102527.69;;;7.97;100.00
59757;BME280;45631;51.962;5.974;2023-03-03T11:39:53;102525.91;;;7.97;100.00
59757;BME280;45631;51.962;5.974;2023-03-03T11:42:25;102525.16;;;8.55;100.00
59757;BME280;45631;51.962;5.974;2023-03-03T11:45:02;102522.38;;;8.61;100.00
59757;BME280;45631;51.962;5.974;2023-03-03T11:47:36;102518.09;;;9.15;100.00
59757;BME280;45631;51.962;5.974;2023-03-03T11:50:10;102511.44;;;9.57;100.00
59757;BME280;45631;51.962;5.974;2023-03-03T11:52:45;102510.69;;;10.04;100.00
59757;BME280;45631;51.962;5.974;2023-03-03T11:55:16;102500.53;;;10.42;100.00
59757;BME280;45631;51.962;5.974;2023-03-03T11:57:53;102499.72;;;10.63;100.00
59757;BME280;45631;51.962;5.974;2023-03-03T12:00:32;102494.44;;;11.08;100.00
59757;BME280;45631;51.962;5.974;2023-03-03T12:03:16;102498.31;;;10.99;100.00
59757;BME280;45631;51.962;5.974;2023-03-03T12:05:54;102485.78;;;11.26;100.00
59757;BME280;45631;51.962;5.974;2023-03-03T12:08:35;102482.31;;;11.86;98.22
59757;BME280;45631;51.962;5.974;2023-03-03T12:11:09;102488.09;;;11.96;94.88
59757;BME280;45631;51.962;5.974;2023-03-03T12:13:48;102488.25;;;12.31;96.35
59757;BME280;45631;51.962;5.974;2023-03-03T12:16:30;102490.31;;;12.43;92.09
59757;BME280;45631;51.962;5.974;2023-03-03T12:19:16;102485.22;;;12.77;88.16
59757;BME280;45631;51.962;5.974;2023-03-03T12:22:06;102480.00;;;12.75;85.73
59757;BME280;45631;51.962;5.974;2023-03-03T12:24:52;102479.81;;;12.97;84.56
59757;BME280;45631;51.962;5.974;2023-03-03T12:27:26;102472.44;;;12.67;85.43
59757;BME280;45631;51.962;5.974;2023-03-03T12:30:04;102471.25;;;12.92;84.62
59757;BME280;45631;51.962;5.974;2023-03-03T12:32:57;102474.72;;;13.12;84.10
59757;BME280;45631;51.962;5.974;2023-03-03T12:35:34;102465.44;;;13.21;79.40
59757;BME280;45631;51.962;5.974;2023-03-03T12:38:11;102464.59;;;13.20;78.40
59757;BME280;45631;51.962;5.974;2023-03-03T12:40:49;102469.44;;;13.29;80.13
59757;BME280;45631;51.962;5.974;2023-03-03T12:43:34;102460.03;;;13.41;73.48
59757;BME280;45631;51.962;5.974;2023-03-03T12:46:13;102463.84;;;13.53;74.30
59757;BME280;45631;51.962;5.974;2023-03-03T12:48:47;102460.28;;;13.37;72.12
59757;BME280;45631;51.962;5.974;2023-03-03T12:51:24;102453.06;;;13.74;72.73
59757;BME280;45631;51.962;5.974;2023-03-03T12:54:32;102452.38;;;14.03;71.06
59757;BME280;45631;51.962;5.974;2023-03-03T12:57:13;102438.63;;;14.45;68.84
59757;BME280;45631;51.962;5.974;2023-03-03T12:59:50;102443.06;;;14.60;68.24
59757;BME280;45631;51.962;5.974;2023-03-03T13:02:42;102438.03;;;14.40;67.83
59757;BME280;45631;51.962;5.974;2023-03-03T13:05:22;102442.84;;;14.33;68.16
59757;BME280;45631;51.962;5.974;2023-03-03T13:08:02;102433.19;;;14.32;68.10
59757;BME280;45631;51.962;5.974;2023-03-03T13:10:44;102431.81;;;14.09;66.17
59757;BME280;45631;51.962;5.974;2023-03-03T13:13:19;102431.22;;;14.19;67.53
59757;BME280;45631;51.962;5.974;2023-03-03T13:15:57;102434.03;;;14.00;67.37
59757;BME280;45631;51.962;5.974;2023-03-03T13:18:43;102432.72;;;13.76;67.14
59757;BME280;45631;51.962;5.974;2023-03-03T13:21:21;102435.09;;;13.12;65.43
59757;BME280;45631;51.962;5.974;2023-03-03T13:23:53;102431.81;;;13.07;66.26